Details From GVAC - Sal Amilcar Cabral Intl
To GOOY - Dakar Leopold Sedar Senghor Intl
Flight Number -
Tags Standard
Created
Modified
Stats Distance 344 nm / 638 km
Max Altitude 29,000 ft / 8,839 m
Waypoints 10
Social Downloads 0
Likes 0
Share VATSIM

Download

Looking for another format? Having issues loading an existing format? Contact us
Advertisement - Login to hide

Notes

None

Route

GVAC +16.65_-022.95 +16.59_-022.91 +16.55_-022.84 +16.11_-021.38 +15.65_-019.92 +14.91_-017.61 +14.89_-017.54 +14.83_-017.49 GOOY

ID Type Via Altitude Latitude Longitude Leg Dist Tot Dist Heading (true) Name
O GVAC APT - 0 ft / 0 m 16.72133˚ -22.94883˚ - 0 nm - -
+16.65_-022.95 LATLON - 160 ft / 49 m 16.64897˚ -22.94843˚ 4 nm 4 nm 180° / 180° -
+16.59_-022.91 LATLON - 29,000 ft / 8,839 m 16.58649˚ -22.91032˚ 4 nm 8 nm 150° / 150° -
+16.55_-022.84 LATLON - 29,000 ft / 8,839 m 16.55063˚ -22.84474˚ 4 nm 13 nm 120° / 120° -
+16.11_-021.38 LATLON - 29,000 ft / 8,839 m 16.10705˚ -21.37634˚ 88 nm 101 nm 107° / 108° -
+15.65_-019.92 LATLON - 29,000 ft / 8,839 m 15.65398˚ -19.91522˚ 88 nm 190 nm 108° / 108° -
+14.91_-017.61 LATLON - 1,440 ft / 439 m 14.91410˚ -17.60528˚ 141 nm 331 nm 108° / 109° -
+14.89_-017.54 LATLON - 640 ft / 195 m 14.88634˚ -17.53612˚ 4 nm 335 nm 113° / 113° -
+14.83_-017.49 LATLON - 160 ft / 49 m 14.82887˚ -17.49062˚ 4 nm 340 nm 143° / 143° -
O GOOY APT - 0 ft / 0 m 14.75711˚ -17.48094˚ 4 nm 344 nm 173° / 173° -

Altitude Profile

Advertisement - Login to hide

Weather


0- 5 10 15 20 25 30 35+ Temperature / ° C

Clouds and Precipitation
Forecast for 2017-12-17 12:00 UTC. Updated an hour ago

Ground ~20,000 ft ~40,000 ft Winds

GVAC

Details ICAO GVAC (SID)
Name Sal Amilcar Cabral Intl
Region Cape Verde
Timezone Atlantic/Cape_Verde (UTC-1.0)
Stats Elevation 177 ft / 54 m (AMSL)
Location 16.738208° -22.950500°
Runways 2
Magnetic Variation 9.240° W

METAR

GVAC 171200Z 06016KT 9999 FEW014 SCT100 OVC200 25/14 Q1018 NOSIG

Decode

TAF

TAF GVAC 171100Z 1712/1818 06016KT 9999 SCT014 TEMPO 1810/1818 BKN014

Decode

Departure Runways

ID Width Length Bearing (true) Bearing (mag) Surface Threshold Offset Overrun Length
01 148 ft / 45 m 10,826 ft / 3,300 m 359.69° 8.93° Asphalt 885 ft / 270 m 0 ft / 0 m
07 148 ft / 45 m 4,892 ft / 1,491 m 57.69° 66.93° Asphalt 200 ft / 61 m 0 ft / 0 m
19 148 ft / 45 m 10,826 ft / 3,300 m 179.69° 188.93° Asphalt 800 ft / 244 m 0 ft / 0 m
25 148 ft / 45 m 4,892 ft / 1,491 m 237.69° 246.93° Asphalt 200 ft / 61 m 0 ft / 0 m

GOOY

Details ICAO GOOY (DKR)
Name Dakar Leopold Sedar Senghor Intl
Region Senegal
Timezone Africa/Dakar (UTC+0.0)
Stats Elevation 85 ft / 26 m (AMSL)
Location 14.739711° -17.490226°
Runways 2
Magnetic Variation 7.346° W

METAR

GOOY 171200Z 04012KT 8000 NSC 24/13 Q1015

Decode

TAF

TAF GOOY 171130Z 1712/1818 02012KT 8000 NSC= TAF GBYD 171130Z 1712/1818 04008KT CAVOK

Decode

Destination Runways

ID Width Length Bearing (true) Bearing (mag) Surface Threshold Offset Overrun Length
03 98 ft / 30 m 4,921 ft / 1,500 m 22.31° 29.66° Asphalt 0 ft / 0 m 98 ft / 30 m
18 148 ft / 45 m 11,511 ft / 3,509 m 172.57° 179.92° Asphalt 525 ft / 160 m 197 ft / 60 m
21 98 ft / 30 m 4,921 ft / 1,500 m 202.31° 209.66° Asphalt 0 ft / 0 m 1,590 ft / 485 m
36 148 ft / 45 m 11,511 ft / 3,509 m 352.57° 359.92° Asphalt 0 ft / 0 m 197 ft / 60 m

Approach Navaids

Runway Type Ident Frequency Range Bearing (true) Bearing (mag) Slope Elevation
36 Localiser YF 110.30 MHz 18 nm / 33 km 352.33° 359.67° - 65 ft / 20 m (AMSL)
36 Glidescope YF 110.30 MHz 10 nm / 19 km 352.57° 359.92° 3.01° 73 ft / 22 m (AMSL)
36 DME YF 110.30 MHz 18 nm / 33 km - - - 73 ft / 22 m (AMSL)

Popular Alternatives